createdAt,value
2022-10-29T00:02:24.623Z,34.42
2022-10-29T00:04:51.379Z,34.72
2022-10-29T00:07:17.979Z,33.15
2022-10-29T00:09:44.609Z,35.17
2022-10-29T00:12:11.130Z,34.10
2022-10-29T00:17:03.669Z,33.90
2022-10-29T00:19:30.355Z,35.70
2022-10-29T00:21:56.858Z,34.92
2022-10-29T00:24:23.439Z,33.63
2022-10-29T00:26:50.413Z,31.90
2022-10-29T00:29:17.285Z,32.30
2022-10-29T00:31:43.881Z,35.15
2022-10-29T00:34:10.486Z,34.22
2022-10-29T00:36:36.971Z,32.15
2022-10-29T00:39:03.722Z,34.70
2022-10-29T00:41:30.453Z,34.90
2022-10-29T00:46:32.010Z,35.60
2022-10-29T00:48:59.099Z,32.20
2022-10-29T00:51:26.960Z,32.10
2022-10-29T00:54:01.850Z,35.35
2022-10-29T00:56:32.434Z,33.45
2022-10-29T00:58:59.371Z,33.60
2022-10-29T01:01:26.222Z,33.08
2022-10-29T01:03:54.199Z,35.47
2022-10-29T01:06:22.691Z,34.50
2022-10-29T01:08:49.253Z,35.15
2022-10-29T01:11:24.463Z,32.88
2022-10-29T01:14:16.128Z,35.15
2022-10-29T01:16:55.969Z,30.93
2022-10-29T01:20:00.347Z,30.05
2022-10-29T01:22:35.083Z,30.77
2022-10-29T01:25:16.615Z,28.83
2022-10-29T01:27:49.506Z,28.02
2022-10-29T01:30:27.535Z,30.60
2022-10-29T01:33:09.243Z,28.15
2022-10-29T01:36:19.268Z,27.60
2022-10-29T01:39:07.962Z,29.70
2022-10-29T01:42:02.442Z,27.27
2022-10-29T01:44:54.158Z,26.13
2022-10-29T01:47:24.317Z,26.08
2022-10-29T01:49:54.995Z,21.48
2022-10-29T01:52:29.523Z,27.23
2022-10-29T01:54:56.135Z,27.63
2022-10-29T01:57:28.298Z,27.90
2022-10-29T02:00:01.542Z,25.25
2022-10-29T02:02:53.432Z,26.50
2022-10-29T02:05:38.213Z,22.80
2022-10-29T02:08:19.302Z,24.17
2022-10-29T02:10:53.564Z,20.60
2022-10-29T02:13:27.029Z,21.50
2022-10-29T02:15:56.779Z,21.42
2022-10-29T02:18:23.450Z,23.85
2022-10-29T02:20:50.068Z,22.60
2022-10-29T02:23:17.498Z,24.50
2022-10-29T02:25:44.376Z,22.02
2022-10-29T02:28:11.042Z,23.60
2022-10-29T02:30:37.671Z,21.83
2022-10-29T02:33:04.197Z,23.10
2022-10-29T02:35:30.751Z,22.58
2022-10-29T02:37:57.338Z,23.73
2022-10-29T02:40:23.939Z,24.13
2022-10-29T02:42:50.435Z,23.17
2022-10-29T02:45:17.337Z,22.38
2022-10-29T02:47:43.843Z,23.27
2022-10-29T02:50:10.455Z,22.75
2022-10-29T02:52:36.985Z,22.25
2022-10-29T02:55:03.719Z,24.10
2022-10-29T02:57:30.212Z,20.10
2022-10-29T02:59:56.903Z,23.60
2022-10-29T03:02:23.476Z,20.15
2022-10-29T03:04:50.135Z,20.38
2022-10-29T03:07:16.662Z,19.42
2022-10-29T03:09:43.197Z,19.40
2022-10-29T03:14:37.530Z,19.42
2022-10-29T03:17:04.123Z,18.17
2022-10-29T03:19:30.617Z,18.83
2022-10-29T03:21:57.211Z,17.58
2022-10-29T03:24:23.728Z,18.77
2022-10-29T03:29:05.818Z,16.55
2022-10-29T03:31:32.443Z,18.42
2022-10-29T03:33:58.979Z,17.70
2022-10-29T03:36:25.746Z,17.40
2022-10-29T03:38:52.282Z,21.38
2022-10-29T03:41:18.790Z,19.08
2022-10-29T03:43:45.370Z,18.55
2022-10-29T03:46:11.991Z,18.33
2022-10-29T03:48:38.505Z,19.92
2022-10-29T03:51:06.669Z,18.52
2022-10-29T03:53:34.811Z,17.00
2022-10-29T03:56:02.136Z,19.77
2022-10-29T03:58:29.009Z,16.65
2022-10-29T04:00:55.547Z,16.45
2022-10-29T04:03:22.147Z,18.63
2022-10-29T04:05:48.980Z,18.17
2022-10-29T04:08:15.482Z,19.85
2022-10-29T04:10:46.873Z,20.13
2022-10-29T04:13:14.523Z,20.58
2022-10-29T04:15:41.483Z,20.50
2022-10-29T04:18:08.899Z,23.10
2022-10-29T04:21:50.889Z,20.75
2022-10-29T04:28:58.942Z,19.52
2022-10-29T04:31:25.515Z,18.52
2022-10-29T04:33:55.246Z,17.05
2022-10-29T04:36:21.854Z,17.58
2022-10-29T04:38:50.147Z,20.15
2022-10-29T04:41:16.767Z,16.77
2022-10-29T04:43:43.365Z,18.40
2022-10-29T04:46:10.278Z,17.48
2022-10-29T04:48:37.266Z,21.73
2022-10-29T04:51:04.468Z,17.02
2022-10-29T04:53:31.302Z,16.05
2022-10-29T04:56:02.033Z,15.10
2022-10-29T04:58:28.554Z,17.55
2022-10-29T05:01:01.348Z,17.60
2022-10-29T05:03:28.013Z,17.88
2022-10-29T05:05:54.507Z,18.85
2022-10-29T05:08:21.553Z,18.75
2022-10-29T05:10:48.140Z,17.65
2022-10-29T05:13:14.944Z,16.88
2022-10-29T05:15:42.047Z,16.25
2022-10-29T05:18:10.285Z,15.43
2022-10-29T05:20:36.787Z,16.80
2022-10-29T05:23:05.877Z,15.65
2022-10-29T05:25:36.261Z,14.75
2022-10-29T05:28:14.397Z,14.48
2022-10-29T05:30:44.571Z,14.27
2022-10-29T05:33:14.274Z,15.65
2022-10-29T05:37:55.030Z,17.38
2022-10-29T05:40:22.801Z,16.63
2022-10-29T05:42:49.460Z,16.17
2022-10-29T05:45:17.003Z,18.02
2022-10-29T05:47:43.913Z,17.45
2022-10-29T05:50:11.381Z,19.02
2022-10-29T05:52:38.871Z,18.13
2022-10-29T05:57:30.418Z,18.77
2022-10-29T05:59:57.108Z,18.50
2022-10-29T06:02:23.920Z,12.57
2022-10-29T06:04:50.867Z,14.60
2022-10-29T06:07:17.430Z,14.90
2022-10-29T06:09:43.996Z,16.10
2022-10-29T06:12:10.490Z,13.50
2022-10-29T06:14:37.189Z,14.40
2022-10-29T06:17:03.736Z,14.18
2022-10-29T06:19:30.339Z,15.50
2022-10-29T06:22:00.301Z,13.95
2022-10-29T06:24:28.236Z,13.52
2022-10-29T06:26:54.801Z,13.13
2022-10-29T06:29:22.945Z,10.93
2022-10-29T06:31:49.487Z,13.13
2022-10-29T06:34:16.500Z,12.05
2022-10-29T06:36:43.195Z,13.00
2022-10-29T06:39:09.756Z,12.63
2022-10-29T06:41:36.261Z,12.95
2022-10-29T06:44:02.923Z,12.68
2022-10-29T06:46:29.435Z,14.73
2022-10-29T06:48:56.290Z,15.73
2022-10-29T06:51:25.987Z,16.20
2022-10-29T06:53:54.056Z,13.57
2022-10-29T06:56:22.050Z,14.35
2022-10-29T06:58:48.731Z,15.60
2022-10-29T07:01:15.306Z,14.95
2022-10-29T07:03:41.970Z,13.98
2022-10-29T07:08:24.148Z,15.52
2022-10-29T07:10:51.919Z,12.55
2022-10-29T07:13:18.549Z,13.40
2022-10-29T07:15:45.547Z,12.32
2022-10-29T07:18:12.335Z,11.38
2022-10-29T07:20:41.697Z,11.13
2022-10-29T07:23:09.147Z,10.00
2022-10-29T07:25:37.389Z,14.27
2022-10-29T07:28:05.321Z,13.23
2022-10-29T07:30:32.716Z,11.32
2022-10-29T07:32:59.246Z,10.80
2022-10-29T07:35:25.803Z,10.57
2022-10-29T07:37:52.358Z,9.77
2022-10-29T07:40:19.029Z,11.80
2022-10-29T07:42:51.747Z,13.35
2022-10-29T07:45:18.324Z,9.15
2022-10-29T07:47:44.847Z,12.10
2022-10-29T07:50:12.703Z,11.88
2022-10-29T07:52:40.320Z,10.00
2022-10-29T07:55:08.416Z,9.00
2022-10-29T07:57:34.989Z,10.13
2022-10-29T08:00:01.854Z,11.80
2022-10-29T08:02:39.383Z,11.00
2022-10-29T08:05:06.213Z,10.20
2022-10-29T08:09:49.571Z,11.40
2022-10-29T08:12:16.317Z,9.27
2022-10-29T08:14:42.890Z,10.60
2022-10-29T08:17:09.594Z,9.15
2022-10-29T08:19:36.111Z,8.93
2022-10-29T08:22:02.740Z,7.75
2022-10-29T08:24:29.226Z,7.07
2022-10-29T08:26:55.820Z,5.18
2022-10-29T08:29:22.325Z,8.32
2022-10-29T08:31:48.886Z,6.15
2022-10-29T08:34:15.640Z,5.93
2022-10-29T08:36:42.315Z,5.60
2022-10-29T08:39:08.839Z,5.75
2022-10-29T08:42:15.924Z,6.32
2022-10-29T08:44:50.990Z,5.07
2022-10-29T08:47:23.411Z,6.20
2022-10-29T08:50:06.044Z,5.15
2022-10-29T08:52:48.212Z,4.43
2022-10-29T08:55:32.564Z,5.22
2022-10-29T08:58:34.173Z,5.38
2022-10-29T09:01:00.932Z,3.73
2022-10-29T09:03:29.664Z,4.50
2022-10-29T09:06:15.087Z,4.05
2022-10-29T09:11:01.207Z,4.90
2022-10-29T09:13:47.929Z,4.60
2022-10-29T09:16:26.822Z,5.20
2022-10-29T09:19:38.320Z,5.68
2022-10-29T09:22:15.362Z,5.50
2022-10-29T09:25:23.667Z,4.78
2022-10-29T09:28:52.941Z,5.32
2022-10-29T09:31:42.306Z,5.93
2022-10-29T09:34:25.819Z,3.83
2022-10-29T09:36:52.623Z,5.03
2022-10-29T09:39:35.439Z,4.05
2022-10-29T09:42:08.475Z,6.28
2022-10-29T09:44:46.563Z,5.00
2022-10-29T09:47:22.559Z,4.50
2022-10-29T09:50:05.458Z,4.55
2022-10-29T09:52:41.451Z,4.45
2022-10-29T09:55:15.938Z,3.53
2022-10-29T09:57:43.844Z,4.43
2022-10-29T10:00:28.472Z,4.30
2022-10-29T10:03:05.029Z,4.47
2022-10-29T10:05:34.791Z,4.25
2022-10-29T10:08:08.215Z,5.32
2022-10-29T10:10:50.833Z,4.07
2022-10-29T10:13:18.983Z,4.85
2022-10-29T10:15:53.124Z,5.80
2022-10-29T10:18:23.526Z,5.15
2022-10-29T10:21:13.939Z,5.20
2022-10-29T10:23:54.418Z,4.93
2022-10-29T10:26:39.879Z,5.00
2022-10-29T10:29:09.168Z,4.47
2022-10-29T10:31:35.735Z,5.40
2022-10-29T10:34:10.281Z,4.70
2022-10-29T10:36:42.631Z,4.95
2022-10-29T10:39:26.831Z,3.75
2022-10-29T10:41:55.450Z,3.78
2022-10-29T10:44:23.120Z,3.97
2022-10-29T10:46:52.525Z,4.20
2022-10-29T10:49:32.960Z,5.95
2022-10-29T10:52:02.887Z,5.25
2022-10-29T10:54:38.280Z,6.93
2022-10-29T10:57:10.939Z,5.75
2022-10-29T10:59:43.225Z,6.65
2022-10-29T11:02:29.691Z,6.18
2022-10-29T11:05:05.340Z,5.55
2022-10-29T11:07:39.160Z,5.70
2022-10-29T11:10:12.109Z,5.38
2022-10-29T11:12:54.430Z,5.80
2022-10-29T11:15:29.695Z,5.32
2022-10-29T11:18:04.693Z,5.20
2022-10-29T11:20:40.183Z,6.78
2022-10-29T11:23:24.962Z,6.45
2022-10-29T11:26:00.662Z,6.60
2022-10-29T11:28:40.001Z,5.88
2022-10-29T11:31:32.214Z,5.43
2022-10-29T11:34:22.425Z,6.90
2022-10-29T11:37:22.583Z,6.15
2022-10-29T11:39:57.690Z,6.70
2022-10-29T11:42:25.281Z,6.78
2022-10-29T11:44:52.274Z,6.05
2022-10-29T11:47:45.127Z,5.50
2022-10-29T11:50:26.903Z,7.32
2022-10-29T11:53:09.098Z,4.82
2022-10-29T11:55:43.203Z,5.18
2022-10-29T11:58:19.075Z,4.65
2022-10-29T12:00:48.236Z,6.00
2022-10-29T12:03:30.324Z,6.47
2022-10-29T12:06:12.213Z,6.18
2022-10-29T12:08:57.555Z,5.72
2022-10-29T12:11:24.112Z,6.75
2022-10-29T12:14:27.323Z,6.40
2022-10-29T12:17:13.667Z,5.28
2022-10-29T12:22:40.915Z,16.63
2022-10-29T12:25:16.342Z,17.55
2022-10-29T12:28:06.910Z,7.65
2022-10-29T12:30:47.769Z,6.15
2022-10-29T12:33:42.351Z,7.05
2022-10-29T12:36:25.239Z,6.43
2022-10-29T12:38:57.222Z,20.63
2022-10-29T12:41:30.046Z,23.00
2022-10-29T12:44:09.380Z,11.05
2022-10-29T12:46:43.584Z,8.52
2022-10-29T12:49:48.339Z,8.18
2022-10-29T12:52:41.344Z,7.53
2022-10-29T12:55:12.653Z,7.32
2022-10-29T12:57:39.633Z,6.35
2022-10-29T13:00:24.495Z,4.82
2022-10-29T13:02:52.582Z,5.47
2022-10-29T13:05:36.344Z,5.22
2022-10-29T13:08:02.879Z,6.70
2022-10-29T13:10:35.094Z,5.25
2022-10-29T13:13:05.584Z,7.20
2022-10-29T13:15:37.278Z,5.55
2022-10-29T13:18:26.347Z,7.05
2022-10-29T13:20:54.646Z,6.60
2022-10-29T13:23:24.270Z,6.18
2022-10-29T13:25:55.752Z,6.53
2022-10-29T13:28:22.283Z,6.50
2022-10-29T13:30:49.920Z,5.35
2022-10-29T13:33:28.771Z,5.40
2022-10-29T13:36:02.656Z,8.20
2022-10-29T13:39:04.710Z,5.40
2022-10-29T13:41:39.783Z,5.07
2022-10-29T13:44:26.446Z,4.78
2022-10-29T13:47:02.380Z,7.82
2022-10-29T13:49:39.303Z,7.63
2022-10-29T13:52:08.619Z,5.10
2022-10-29T13:54:47.669Z,7.30
2022-10-29T13:57:14.184Z,7.60
2022-10-29T13:59:46.646Z,6.43
2022-10-29T14:02:22.773Z,4.95
2022-10-29T14:04:54.674Z,4.75
2022-10-29T14:07:28.642Z,5.28
2022-10-29T14:10:01.018Z,6.13
2022-10-29T14:12:31.010Z,4.10
2022-10-29T14:15:11.595Z,5.50
2022-10-29T14:17:39.783Z,7.28
2022-10-29T14:20:26.611Z,7.68
2022-10-29T14:22:53.822Z,7.15
2022-10-29T14:25:25.778Z,4.97
2022-10-29T14:30:41.802Z,3.60
2022-10-29T14:33:21.618Z,3.67
2022-10-29T14:35:48.777Z,3.70
2022-10-29T14:38:16.539Z,3.25
2022-10-29T14:40:45.567Z,3.83
2022-10-29T14:43:22.976Z,5.28
2022-10-29T14:45:49.846Z,3.88
2022-10-29T14:48:18.555Z,4.00
2022-10-29T14:50:47.825Z,3.17
2022-10-29T14:53:34.479Z,4.70
2022-10-29T14:56:09.385Z,5.68
2022-10-29T14:58:37.748Z,3.95
2022-10-29T15:01:09.093Z,4.63
2022-10-29T15:03:36.195Z,5.72
2022-10-29T15:06:21.295Z,6.75
2022-10-29T15:08:59.768Z,4.75
2022-10-29T15:11:49.057Z,5.45
2022-10-29T15:14:30.820Z,4.93
2022-10-29T15:16:58.761Z,5.18
2022-10-29T15:21:50.000Z,6.95
2022-10-29T15:24:21.069Z,7.75
2022-10-29T15:26:54.735Z,8.77
2022-10-29T15:29:34.198Z,12.50
2022-10-29T15:32:02.925Z,9.35
2022-10-29T15:34:35.970Z,9.88
2022-10-29T15:37:33.101Z,7.47
2022-10-29T15:39:59.678Z,7.32
2022-10-29T15:42:34.922Z,8.82
2022-10-29T15:45:07.509Z,6.72
2022-10-29T15:47:35.627Z,7.85
2022-10-29T15:50:02.806Z,7.78
2022-10-29T15:53:07.163Z,8.00
2022-10-29T15:55:38.426Z,9.88
2022-10-29T15:58:11.333Z,9.95
2022-10-29T16:00:38.244Z,12.05
2022-10-29T16:03:15.379Z,11.63
2022-10-29T16:05:44.526Z,18.70
2022-10-29T16:08:24.623Z,14.38
2022-10-29T16:10:52.138Z,12.63
2022-10-29T16:13:19.558Z,12.23
2022-10-29T16:15:46.447Z,12.65
2022-10-29T16:18:14.159Z,11.95
2022-10-29T16:20:40.735Z,13.65
2022-10-29T16:23:11.294Z,13.90
2022-10-29T16:25:38.956Z,12.77
2022-10-29T16:28:06.226Z,13.68
2022-10-29T16:30:33.842Z,14.05
2022-10-29T16:33:01.714Z,16.25
2022-10-29T16:35:29.746Z,15.45
2022-10-29T16:37:58.199Z,15.00
2022-10-29T16:40:27.483Z,17.48
2022-10-29T16:42:57.538Z,17.10
2022-10-29T16:45:29.983Z,18.55
2022-10-29T16:47:58.100Z,20.15
2022-10-29T16:50:26.033Z,17.35
2022-10-29T16:53:00.128Z,18.08
2022-10-29T16:55:28.201Z,17.27
2022-10-29T16:57:55.345Z,18.15
2022-10-29T17:00:23.118Z,12.95
2022-10-29T17:02:49.633Z,13.93
2022-10-29T17:05:16.273Z,21.40
2022-10-29T17:07:42.812Z,18.63
2022-10-29T17:10:10.042Z,19.65
2022-10-29T17:12:36.915Z,19.80
2022-10-29T17:15:03.685Z,19.55
2022-10-29T17:17:31.014Z,18.00
2022-10-29T17:19:57.888Z,19.42
2022-10-29T17:22:24.819Z,18.90
2022-10-29T17:24:51.376Z,19.73
2022-10-29T17:27:17.941Z,22.15
2022-10-29T17:29:44.592Z,20.73
2022-10-29T17:32:11.115Z,21.10
2022-10-29T17:34:37.687Z,19.40
2022-10-29T17:37:04.297Z,22.40
2022-10-29T17:39:30.958Z,19.90
2022-10-29T17:41:57.571Z,19.15
2022-10-29T17:44:26.440Z,20.65
2022-10-29T17:46:53.732Z,22.02
2022-10-29T17:49:21.021Z,22.95
2022-10-29T17:51:47.829Z,23.75
2022-10-29T17:54:15.860Z,23.58
2022-10-29T17:58:56.740Z,23.80
2022-10-29T18:01:23.450Z,24.38
2022-10-29T18:03:50.093Z,24.77
2022-10-29T18:06:17.168Z,27.27
2022-10-29T18:08:43.867Z,24.45
2022-10-29T18:11:15.402Z,23.15
2022-10-29T18:13:43.802Z,24.50
2022-10-29T18:16:12.790Z,23.90
2022-10-29T18:18:54.389Z,22.30
2022-10-29T18:21:27.781Z,19.42
2022-10-29T18:23:54.341Z,27.17
2022-10-29T18:26:32.330Z,25.02
2022-10-29T18:29:01.017Z,23.55
2022-10-29T18:31:30.370Z,24.63
2022-10-29T18:33:58.524Z,24.33
2022-10-29T18:36:27.419Z,26.23
2022-10-29T18:38:56.206Z,26.52
2022-10-29T18:41:23.417Z,24.98
2022-10-29T18:43:50.769Z,25.30
2022-10-29T18:46:18.275Z,24.95
2022-10-29T18:48:48.781Z,27.98
2022-10-29T18:51:21.079Z,27.17
2022-10-29T18:53:47.628Z,28.45
2022-10-29T18:56:17.283Z,28.35
2022-10-29T18:58:44.229Z,25.40
2022-10-29T19:01:12.107Z,27.80
2022-10-29T19:03:39.431Z,26.73
2022-10-29T19:06:08.726Z,28.83
2022-10-29T19:08:40.699Z,27.17
2022-10-29T19:11:10.009Z,28.75
2022-10-29T19:13:36.912Z,28.77
2022-10-29T19:16:11.377Z,28.85
2022-10-29T19:18:39.748Z,28.40
2022-10-29T19:21:11.732Z,29.23
2022-10-29T19:26:10.755Z,25.17
2022-10-29T19:28:38.046Z,28.73
2022-10-29T19:31:06.958Z,29.27
2022-10-29T19:33:34.204Z,27.40
2022-10-29T19:36:01.660Z,27.55
2022-10-29T19:38:28.474Z,28.35
2022-10-29T19:40:58.743Z,25.67
2022-10-29T19:43:26.342Z,26.75
2022-10-29T19:45:53.259Z,26.67
2022-10-29T19:48:19.995Z,29.48
2022-10-29T19:50:53.825Z,27.27
2022-10-29T19:53:21.004Z,28.45
2022-10-29T19:55:50.321Z,26.88
2022-10-29T19:58:18.096Z,27.73
2022-10-29T20:00:44.895Z,27.15
2022-10-29T20:03:12.951Z,27.50
2022-10-29T20:05:40.746Z,26.42
2022-10-29T20:08:11.391Z,27.73
2022-10-29T20:10:41.491Z,36.63
2022-10-29T20:13:08.475Z,28.15
2022-10-29T20:15:35.052Z,28.60
2022-10-29T20:18:04.191Z,30.85
2022-10-29T20:20:30.728Z,33.47
2022-10-29T20:22:57.601Z,33.53
2022-10-29T20:25:24.499Z,41.78
2022-10-29T20:27:51.007Z,38.83
2022-10-29T20:30:17.883Z,39.20
2022-10-29T20:32:44.424Z,36.08
2022-10-29T20:35:10.960Z,40.35
2022-10-29T20:37:37.466Z,34.72
2022-10-29T20:40:05.077Z,36.38
2022-10-29T20:42:31.660Z,34.58
2022-10-29T20:44:58.199Z,33.10
2022-10-29T20:47:25.023Z,33.95
2022-10-29T20:49:51.979Z,33.15
2022-10-29T20:52:18.608Z,32.13
2022-10-29T20:54:45.440Z,32.25
2022-10-29T20:57:12.015Z,27.88
2022-10-29T20:59:38.606Z,28.67
2022-10-29T21:02:05.255Z,27.73
2022-10-29T21:04:31.843Z,27.90
2022-10-29T21:06:58.450Z,28.70
2022-10-29T21:09:25.069Z,28.25
2022-10-29T21:11:51.612Z,27.60
2022-10-29T21:14:18.152Z,27.70
2022-10-29T21:21:28.219Z,26.98
2022-10-29T21:23:56.555Z,27.42
2022-10-29T21:26:26.143Z,27.33
2022-10-29T21:28:53.661Z,26.48
2022-10-29T21:31:21.667Z,25.58
2022-10-29T21:33:52.203Z,24.85
2022-10-29T21:36:19.779Z,23.92
2022-10-29T21:38:46.304Z,23.58
2022-10-29T21:41:12.951Z,25.25
2022-10-29T21:43:39.798Z,26.55
2022-10-29T21:46:07.263Z,27.45
2022-10-29T21:48:33.912Z,28.17
2022-10-29T21:51:01.855Z,27.20
2022-10-29T21:53:29.063Z,26.02
2022-10-29T21:56:00.130Z,24.20
2022-10-29T21:58:27.569Z,23.33
2022-10-29T22:01:20.258Z,24.27
2022-10-29T22:03:47.644Z,24.92
2022-10-29T22:06:19.326Z,30.90
2022-10-29T22:08:47.449Z,29.08
2022-10-29T22:11:15.370Z,28.30
2022-10-29T22:13:42.022Z,28.50
2022-10-29T22:16:09.429Z,27.70
2022-10-29T22:18:37.662Z,29.67
2022-10-29T22:21:07.581Z,32.05
2022-10-29T22:23:34.759Z,31.73
2022-10-29T22:26:01.510Z,31.60
2022-10-29T22:28:28.797Z,30.00
2022-10-29T22:31:00.337Z,33.50
2022-10-29T22:33:27.519Z,33.75
2022-10-29T22:35:54.340Z,34.28
2022-10-29T22:38:21.096Z,34.53
2022-10-29T22:40:47.626Z,36.70
2022-10-29T22:43:16.022Z,36.05
2022-10-29T22:45:48.133Z,37.70
2022-10-29T22:48:14.690Z,37.33
2022-10-29T22:50:41.445Z,39.33
2022-10-29T22:53:08.007Z,37.75
2022-10-29T22:55:34.523Z,37.63
2022-10-29T22:58:01.071Z,36.15
2022-10-29T23:00:27.681Z,37.42
2022-10-29T23:02:54.303Z,37.83
2022-10-29T23:05:21.006Z,39.60
2022-10-29T23:07:47.605Z,38.45
2022-10-29T23:10:14.332Z,38.83
2022-10-29T23:12:40.839Z,38.80
2022-10-29T23:15:08.749Z,37.97
2022-10-29T23:17:35.302Z,39.83
2022-10-29T23:20:01.835Z,37.55
2022-10-29T23:22:28.435Z,36.90
2022-10-29T23:24:54.906Z,34.70
2022-10-29T23:27:21.479Z,34.70
2022-10-29T23:29:48.046Z,34.42
2022-10-29T23:32:14.591Z,32.58
2022-10-29T23:34:41.071Z,32.38
2022-10-29T23:37:09.904Z,30.58
2022-10-29T23:39:37.166Z,32.75
2022-10-29T23:42:03.959Z,34.08
2022-10-29T23:44:30.559Z,33.25
2022-10-29T23:46:57.139Z,30.38
2022-10-29T23:49:23.635Z,30.63
2022-10-29T23:51:50.287Z,31.75
2022-10-29T23:54:16.781Z,32.30
2022-10-29T23:56:43.380Z,33.13
2022-10-29T23:59:09.922Z,32.67
